createdAt,value
2017-12-15T00:01:27.293Z,78.70
2017-12-15T00:03:54.784Z,78.90
2017-12-15T00:06:22.260Z,78.90
2017-12-15T00:08:49.730Z,78.80
2017-12-15T00:11:17.976Z,78.80
2017-12-15T00:13:45.448Z,78.80
2017-12-15T00:16:12.935Z,79.00
2017-12-15T00:18:40.403Z,79.00
2017-12-15T00:21:08.658Z,79.00
2017-12-15T00:23:36.138Z,79.00
2017-12-15T00:26:03.624Z,79.10
2017-12-15T00:28:31.092Z,79.20
2017-12-15T00:30:58.566Z,79.40
2017-12-15T00:33:26.046Z,79.40
2017-12-15T00:35:53.526Z,79.30
2017-12-15T00:38:21.009Z,79.10
2017-12-15T00:40:48.516Z,79.10
2017-12-15T00:43:15.992Z,79.10
2017-12-15T00:45:43.479Z,79.10
2017-12-15T00:48:10.966Z,79.10
2017-12-15T00:50:38.443Z,79.20
2017-12-15T00:53:06.694Z,79.20
2017-12-15T00:55:34.164Z,79.20
2017-12-15T00:58:01.645Z,78.80
2017-12-15T01:00:29.894Z,77.40
2017-12-15T01:02:57.385Z,77.40
2017-12-15T01:05:25.624Z,76.70
2017-12-15T01:07:53.108Z,76.70
2017-12-15T01:10:20.588Z,76.50
2017-12-15T01:12:48.838Z,76.20
2017-12-15T01:15:16.343Z,76.20
2017-12-15T01:17:44.648Z,76.20
2017-12-15T01:20:12.067Z,76.20
2017-12-15T01:22:39.546Z,76.20
2017-12-15T01:25:07.777Z,75.90
2017-12-15T01:27:35.274Z,75.80
2017-12-15T01:30:02.748Z,76.00
2017-12-15T01:32:31.009Z,76.20
2017-12-15T01:34:58.498Z,76.10
2017-12-15T01:37:26.736Z,75.80
2017-12-15T01:39:54.216Z,75.80
2017-12-15T01:42:21.690Z,75.70
2017-12-15T01:44:53.070Z,75.40
2017-12-15T01:47:20.536Z,75.20
2017-12-15T01:49:48.021Z,74.90
2017-12-15T01:52:15.494Z,75.20
2017-12-15T01:54:42.984Z,75.20
2017-12-15T01:57:10.455Z,75.40
2017-12-15T01:59:38.718Z,75.90
2017-12-15T02:02:06.188Z,75.20
2017-12-15T02:04:33.662Z,75.50
2017-12-15T02:07:01.152Z,75.40
2017-12-15T02:09:28.632Z,75.40
2017-12-15T02:11:56.107Z,75.40
2017-12-15T02:14:23.578Z,75.30
2017-12-15T02:16:51.058Z,75.00
2017-12-15T02:19:18.533Z,75.20
2017-12-15T02:21:46.024Z,75.10
2017-12-15T02:24:14.273Z,75.30
2017-12-15T02:26:41.770Z,75.30
2017-12-15T02:29:09.246Z,75.30
2017-12-15T02:31:36.746Z,75.10
2017-12-15T02:34:04.215Z,75.00
2017-12-15T02:36:31.689Z,74.70
2017-12-15T02:38:59.169Z,74.50
2017-12-15T02:41:27.406Z,74.50
2017-12-15T02:43:54.873Z,74.50
2017-12-15T02:46:22.365Z,73.90
2017-12-15T02:48:50.630Z,73.60
2017-12-15T02:51:18.111Z,73.60
2017-12-15T02:53:46.344Z,71.30
2017-12-15T02:56:13.823Z,71.30
2017-12-15T02:58:41.285Z,71.60
2017-12-15T03:01:09.529Z,72.00
2017-12-15T03:03:36.995Z,71.50
2017-12-15T03:06:04.486Z,71.00
2017-12-15T03:08:31.953Z,71.00
2017-12-15T03:11:00.239Z,72.10
2017-12-15T03:13:28.505Z,72.00
2017-12-15T03:15:55.976Z,72.00
2017-12-15T03:18:23.476Z,72.40
2017-12-15T03:20:50.949Z,72.60
2017-12-15T03:23:18.441Z,72.70
2017-12-15T03:25:45.915Z,72.70
2017-12-15T03:28:13.408Z,72.70
2017-12-15T03:30:41.650Z,73.00
2017-12-15T03:33:09.137Z,73.00
2017-12-15T03:35:36.608Z,73.10
2017-12-15T03:38:04.855Z,73.20
2017-12-15T03:40:32.329Z,73.20
2017-12-15T03:42:59.817Z,73.20
2017-12-15T03:45:28.057Z,73.20
2017-12-15T03:47:55.546Z,73.20
2017-12-15T03:50:23.001Z,73.30
2017-12-15T03:52:50.483Z,73.30
2017-12-15T03:55:18.724Z,73.40
2017-12-15T03:57:46.193Z,73.40
2017-12-15T04:00:13.930Z,73.50
2017-12-15T04:02:41.468Z,73.40
2017-12-15T04:05:08.884Z,73.50
2017-12-15T04:07:36.369Z,73.30
2017-12-15T04:10:03.861Z,73.00
2017-12-15T04:12:31.370Z,73.00
2017-12-15T04:14:58.845Z,72.70
2017-12-15T04:17:26.320Z,72.50
2017-12-15T04:19:53.799Z,72.30
2017-12-15T04:22:22.045Z,72.50
2017-12-15T04:24:49.540Z,72.40
2017-12-15T04:27:17.757Z,73.00
2017-12-15T04:29:45.244Z,72.10
2017-12-15T04:32:12.713Z,72.10
2017-12-15T04:34:40.184Z,72.20
2017-12-15T04:37:07.660Z,72.10
2017-12-15T04:39:35.140Z,72.20
2017-12-15T04:42:03.371Z,72.30
2017-12-15T04:44:30.869Z,72.30
2017-12-15T04:46:58.348Z,72.20
2017-12-15T04:49:26.627Z,71.90
2017-12-15T04:51:54.854Z,71.90
2017-12-15T04:54:22.337Z,71.90
2017-12-15T04:56:49.818Z,71.70
2017-12-15T04:59:18.067Z,71.50
2017-12-15T05:01:45.552Z,71.50
2017-12-15T05:04:13.033Z,71.10
2017-12-15T05:06:41.283Z,71.40
2017-12-15T05:09:08.756Z,71.40
2017-12-15T05:11:36.232Z,71.40
2017-12-15T05:14:04.475Z,71.50
2017-12-15T05:16:31.959Z,71.40
2017-12-15T05:18:59.446Z,71.40
2017-12-15T05:21:27.684Z,71.70
2017-12-15T05:23:55.165Z,71.70
2017-12-15T05:26:22.647Z,71.70
2017-12-15T05:28:50.894Z,72.20
2017-12-15T05:31:18.383Z,72.20
2017-12-15T05:33:46.620Z,72.50
2017-12-15T05:36:14.112Z,72.50
2017-12-15T05:38:41.581Z,72.60
2017-12-15T05:41:09.853Z,72.90
2017-12-15T05:43:37.319Z,72.90
2017-12-15T05:46:04.798Z,73.00
2017-12-15T05:48:33.952Z,73.40
2017-12-15T05:51:01.429Z,73.40
2017-12-15T05:53:28.888Z,73.30
2017-12-15T05:55:56.362Z,73.50
2017-12-15T05:58:23.842Z,73.60
2017-12-15T06:00:51.313Z,73.70
2017-12-15T06:03:19.561Z,73.80
2017-12-15T06:05:47.041Z,73.80
2017-12-15T06:08:14.506Z,73.80
2017-12-15T06:10:42.005Z,73.70
2017-12-15T06:13:09.483Z,74.00
2017-12-15T06:15:36.938Z,73.80
2017-12-15T06:18:05.179Z,73.80
2017-12-15T06:20:32.655Z,73.90
2017-12-15T06:23:00.899Z,73.80
2017-12-15T06:25:28.377Z,73.80
2017-12-15T06:27:55.864Z,73.90
2017-12-15T06:30:24.093Z,73.90
2017-12-15T06:32:51.575Z,73.90
2017-12-15T06:35:19.049Z,73.80
2017-12-15T06:37:46.557Z,73.80
2017-12-15T06:40:14.045Z,73.70
2017-12-15T06:42:41.528Z,73.60
2017-12-15T06:45:09.007Z,73.30
2017-12-15T06:47:37.259Z,73.30
2017-12-15T06:50:04.721Z,73.20
2017-12-15T06:52:32.214Z,73.20
2017-12-15T06:55:00.469Z,73.10
2017-12-15T06:57:27.943Z,73.20
2017-12-15T06:59:55.409Z,73.20
2017-12-15T07:02:22.882Z,73.30
2017-12-15T07:04:51.137Z,73.90
2017-12-15T07:07:18.619Z,73.70
2017-12-15T07:09:46.098Z,73.90
2017-12-15T07:12:14.339Z,74.10
2017-12-15T07:14:41.822Z,74.70
2017-12-15T07:17:09.284Z,74.10
2017-12-15T07:19:36.769Z,74.20
2017-12-15T07:22:05.016Z,74.40
2017-12-15T07:24:32.488Z,74.40
2017-12-15T07:26:59.957Z,74.70
2017-12-15T07:29:27.433Z,74.80
2017-12-15T07:31:55.664Z,75.10
2017-12-15T07:34:23.152Z,75.10
2017-12-15T07:36:50.620Z,75.20
2017-12-15T07:39:18.102Z,75.40
2017-12-15T07:41:46.335Z,75.70
2017-12-15T07:44:13.817Z,75.70
2017-12-15T07:46:41.289Z,75.80
2017-12-15T07:49:08.769Z,76.00
2017-12-15T07:51:36.998Z,76.10
2017-12-15T07:54:04.473Z,76.00
2017-12-15T07:56:31.945Z,76.00
2017-12-15T07:58:59.408Z,76.20
2017-12-15T08:01:26.897Z,75.90
2017-12-15T08:03:55.133Z,75.80
2017-12-15T08:06:22.610Z,75.70
2017-12-15T08:08:50.078Z,75.90
2017-12-15T08:11:17.561Z,75.90
2017-12-15T08:13:45.799Z,76.90
2017-12-15T08:16:13.280Z,76.10
2017-12-15T08:18:40.757Z,75.90
2017-12-15T08:21:08.244Z,75.80
2017-12-15T08:23:36.490Z,75.80
2017-12-15T08:26:04.235Z,75.60
2017-12-15T08:28:31.707Z,75.60
2017-12-15T08:30:59.175Z,75.30
2017-12-15T08:33:26.647Z,75.20
2017-12-15T08:35:54.137Z,75.00
2017-12-15T08:38:22.387Z,75.20
2017-12-15T08:40:49.865Z,75.20
2017-12-15T08:43:17.355Z,75.00
2017-12-15T08:45:44.845Z,76.00
2017-12-15T08:48:13.088Z,74.90
2017-12-15T08:50:41.331Z,75.00
2017-12-15T08:53:09.669Z,74.90
2017-12-15T08:55:37.157Z,74.90
2017-12-15T08:58:04.622Z,74.70
2017-12-15T09:00:32.090Z,74.70
2017-12-15T09:02:59.573Z,74.60
2017-12-15T09:05:27.039Z,74.60
2017-12-15T09:07:54.508Z,74.50
2017-12-15T09:10:21.982Z,74.50
2017-12-15T09:12:50.237Z,74.50
2017-12-15T09:15:17.709Z,74.40
2017-12-15T09:17:45.188Z,74.30
2017-12-15T09:20:13.424Z,74.10
2017-12-15T09:22:40.908Z,74.00
2017-12-15T09:25:08.372Z,73.80
2017-12-15T09:27:35.850Z,73.70
2017-12-15T09:30:04.092Z,73.60
2017-12-15T09:32:32.890Z,73.60
2017-12-15T09:35:00.359Z,73.90
2017-12-15T09:37:27.834Z,74.50
2017-12-15T09:39:55.311Z,73.90
2017-12-15T09:42:22.862Z,74.00
2017-12-15T09:44:50.339Z,73.80
2017-12-15T09:47:18.580Z,73.80
2017-12-15T09:49:46.054Z,73.70
2017-12-15T09:52:13.530Z,73.80
2017-12-15T09:54:40.997Z,73.70
2017-12-15T09:57:08.461Z,74.60
2017-12-15T09:59:35.962Z,74.20
2017-12-15T10:02:03.425Z,73.90
2017-12-15T10:04:30.907Z,74.20
2017-12-15T10:06:58.375Z,74.20
2017-12-15T10:09:25.858Z,74.20
2017-12-15T10:11:53.336Z,74.00
2017-12-15T10:14:20.808Z,74.00
2017-12-15T10:16:49.034Z,74.10
2017-12-15T10:19:17.293Z,73.90
2017-12-15T10:21:44.771Z,73.90
2017-12-15T10:24:12.259Z,73.80
2017-12-15T10:26:39.723Z,74.10
2017-12-15T10:29:07.189Z,74.70
2017-12-15T10:31:34.678Z,76.00
2017-12-15T10:34:02.154Z,75.80
2017-12-15T10:36:30.383Z,76.10
2017-12-15T10:38:57.863Z,76.00
2017-12-15T10:41:25.330Z,76.30
2017-12-15T10:43:52.802Z,76.50
2017-12-15T10:46:20.289Z,76.80
2017-12-15T10:48:48.532Z,77.20
2017-12-15T10:51:16.011Z,77.20
2017-12-15T10:53:43.475Z,77.10
2017-12-15T10:56:10.957Z,77.10
2017-12-15T10:58:39.197Z,77.00
2017-12-15T11:01:06.689Z,77.00
2017-12-15T11:03:34.932Z,77.70
2017-12-15T11:06:02.418Z,76.90
2017-12-15T11:08:29.887Z,76.90
2017-12-15T11:10:58.135Z,76.90
2017-12-15T11:13:25.601Z,76.90
2017-12-15T11:15:53.104Z,76.80
2017-12-15T11:18:21.337Z,76.80
2017-12-15T11:20:48.814Z,76.70
2017-12-15T11:23:16.295Z,76.70
2017-12-15T11:25:43.773Z,76.80
2017-12-15T11:28:12.068Z,77.10
2017-12-15T11:30:39.509Z,77.00
2017-12-15T11:33:07.756Z,77.10
2017-12-15T11:35:35.253Z,77.10
2017-12-15T11:38:03.501Z,77.90
2017-12-15T11:40:30.989Z,77.40
2017-12-15T11:42:58.469Z,77.30
2017-12-15T11:45:26.700Z,77.10
2017-12-15T11:47:54.183Z,77.10
2017-12-15T11:50:21.649Z,77.10
2017-12-15T11:52:49.138Z,77.30
2017-12-15T11:55:17.374Z,77.30
2017-12-15T11:57:44.850Z,77.20
2017-12-15T12:00:12.317Z,77.10
2017-12-15T12:02:39.801Z,77.30
2017-12-15T12:05:08.048Z,77.40
2017-12-15T12:07:35.514Z,77.40
2017-12-15T12:10:02.986Z,77.30
2017-12-15T12:12:30.453Z,77.30
2017-12-15T12:14:57.938Z,77.30
2017-12-15T12:17:25.413Z,77.30
2017-12-15T12:19:52.887Z,77.70
2017-12-15T12:22:20.401Z,77.90
2017-12-15T12:24:47.872Z,77.90
2017-12-15T12:27:15.348Z,78.00
2017-12-15T12:29:43.583Z,78.20
2017-12-15T12:32:11.059Z,78.20
2017-12-15T12:34:38.541Z,78.10
2017-12-15T12:37:06.775Z,78.60
2017-12-15T12:39:35.766Z,78.50
2017-12-15T12:42:03.251Z,78.80
2017-12-15T12:44:30.741Z,76.40
2017-12-15T12:46:58.214Z,77.70
2017-12-15T12:49:26.471Z,78.00
2017-12-15T12:51:53.955Z,77.90
2017-12-15T12:54:21.416Z,78.00
2017-12-15T12:56:49.652Z,72.00
2017-12-15T12:59:17.141Z,71.90
2017-12-15T13:01:44.597Z,69.10
2017-12-15T13:04:12.076Z,67.60
2017-12-15T13:06:39.539Z,67.20
2017-12-15T13:09:07.014Z,64.30
2017-12-15T13:11:35.249Z,63.60
2017-12-15T13:14:02.735Z,63.60
2017-12-15T13:16:30.195Z,64.60
2017-12-15T13:18:57.669Z,63.10
2017-12-15T13:21:25.138Z,63.50
2017-12-15T13:23:52.632Z,63.20
2017-12-15T13:26:20.105Z,63.40
2017-12-15T13:28:47.592Z,63.10
2017-12-15T13:31:15.069Z,64.00
2017-12-15T13:33:42.533Z,63.70
2017-12-15T13:36:10.004Z,64.90
2017-12-15T13:38:37.493Z,63.60
2017-12-15T13:41:05.723Z,64.30
2017-12-15T13:43:33.185Z,64.30
2017-12-15T13:46:00.658Z,64.50
2017-12-15T13:48:28.141Z,65.20
2017-12-15T13:50:56.373Z,66.50
2017-12-15T13:53:23.852Z,65.60
2017-12-15T13:55:51.327Z,66.30
2017-12-15T13:58:18.789Z,66.20
2017-12-15T14:00:49.405Z,66.30
2017-12-15T14:03:16.878Z,66.50
2017-12-15T14:05:44.357Z,66.60
2017-12-15T14:08:11.825Z,67.10
2017-12-15T14:10:39.291Z,66.50
2017-12-15T14:13:06.766Z,65.80
2017-12-15T14:15:35.005Z,65.00
2017-12-15T14:18:02.468Z,64.80
2017-12-15T14:20:29.940Z,63.70
2017-12-15T14:22:57.407Z,64.00
2017-12-15T14:25:24.882Z,63.80
2017-12-15T14:27:52.346Z,64.50
2017-12-15T14:30:19.833Z,63.60
2017-12-15T14:32:47.301Z,63.90
2017-12-15T14:35:14.762Z,64.10
2017-12-15T14:37:42.253Z,64.40
2017-12-15T14:40:09.730Z,64.10
2017-12-15T14:42:37.211Z,64.20
2017-12-15T14:45:04.701Z,64.10
2017-12-15T14:47:32.946Z,64.30
2017-12-15T14:50:00.409Z,64.30
2017-12-15T14:52:27.887Z,64.70
2017-12-15T14:54:55.353Z,64.90
2017-12-15T14:57:22.833Z,65.50
2017-12-15T14:59:51.082Z,65.20
2017-12-15T15:02:18.566Z,65.20
2017-12-15T15:04:46.019Z,65.70
2017-12-15T15:07:13.502Z,66.00
2017-12-15T15:09:41.726Z,65.00
2017-12-15T15:12:09.189Z,64.90
2017-12-15T15:14:36.654Z,65.20
2017-12-15T15:17:04.133Z,65.00
2017-12-15T15:19:31.604Z,65.80
2017-12-15T15:21:59.074Z,66.10
2017-12-15T15:24:26.560Z,66.20
2017-12-15T15:26:54.801Z,66.50
2017-12-15T15:29:22.272Z,66.50
2017-12-15T15:31:49.756Z,66.30
2017-12-15T15:34:17.987Z,66.80
2017-12-15T15:36:46.232Z,66.80
2017-12-15T15:39:14.465Z,66.90
2017-12-15T15:41:41.962Z,66.90
2017-12-15T15:44:10.208Z,67.60
2017-12-15T15:46:37.681Z,67.60
2017-12-15T15:49:05.172Z,68.40
2017-12-15T15:51:33.414Z,69.20
2017-12-15T15:54:00.896Z,69.10
2017-12-15T15:56:29.145Z,70.00
2017-12-15T15:58:56.630Z,70.00
2017-12-15T16:01:24.095Z,70.20
2017-12-15T16:03:51.571Z,70.20
2017-12-15T16:06:19.811Z,71.00
2017-12-15T16:08:47.278Z,70.30
2017-12-15T16:11:14.749Z,70.40
2017-12-15T16:13:42.248Z,70.50
2017-12-15T16:16:10.478Z,70.80
2017-12-15T16:18:37.948Z,70.80
2017-12-15T16:21:05.425Z,70.90
2017-12-15T16:23:32.899Z,71.10
2017-12-15T16:26:00.373Z,71.40
2017-12-15T16:28:28.611Z,72.60
2017-12-15T16:30:56.080Z,71.90
2017-12-15T16:33:23.563Z,72.10
2017-12-15T16:35:51.039Z,72.40
2017-12-15T16:38:19.290Z,72.70
2017-12-15T16:40:46.764Z,72.50
2017-12-15T16:43:14.241Z,72.70
2017-12-15T16:45:41.718Z,72.80
2017-12-15T16:48:09.966Z,73.00
2017-12-15T16:50:37.440Z,73.00
2017-12-15T16:53:04.922Z,73.10
2017-12-15T16:55:33.148Z,73.20
2017-12-15T16:58:00.620Z,73.90
2017-12-15T17:00:28.082Z,73.30
2017-12-15T17:02:55.560Z,73.40
2017-12-15T17:05:23.057Z,73.60
2017-12-15T17:07:51.310Z,74.10
2017-12-15T17:10:18.801Z,74.00
2017-12-15T17:12:47.031Z,74.40
2017-12-15T17:15:14.514Z,74.40
2017-12-15T17:17:41.975Z,74.50
2017-12-15T17:20:09.446Z,74.60
2017-12-15T17:22:36.930Z,74.70
2017-12-15T17:25:05.158Z,74.80
2017-12-15T17:27:32.627Z,74.80
2017-12-15T17:30:00.110Z,74.80
2017-12-15T17:32:27.576Z,74.80
2017-12-15T17:34:55.065Z,74.80
2017-12-15T17:37:23.297Z,75.10
2017-12-15T17:39:50.798Z,75.10
2017-12-15T17:42:19.046Z,75.10
2017-12-15T17:44:47.363Z,75.10
2017-12-15T17:47:15.604Z,75.20
2017-12-15T17:49:43.082Z,75.20
2017-12-15T17:52:10.540Z,75.10
2017-12-15T17:54:38.035Z,75.10
2017-12-15T17:57:06.273Z,75.20
2017-12-15T17:59:33.754Z,75.20
2017-12-15T18:02:01.228Z,75.40
2017-12-15T18:04:28.711Z,75.50
2017-12-15T18:06:56.203Z,76.20
2017-12-15T18:09:24.442Z,75.50
2017-12-15T18:11:52.705Z,75.40
2017-12-15T18:14:20.173Z,75.40
2017-12-15T18:16:47.656Z,75.40
2017-12-15T18:19:15.898Z,75.20
2017-12-15T18:21:43.373Z,75.20
2017-12-15T18:24:10.841Z,75.20
2017-12-15T18:26:39.089Z,75.20
2017-12-15T18:29:06.567Z,75.20
2017-12-15T18:31:34.044Z,75.20
2017-12-15T18:34:01.521Z,75.20
2017-12-15T18:36:29.765Z,75.30
2017-12-15T18:38:57.246Z,75.30
2017-12-15T18:41:24.723Z,75.20
2017-12-15T18:43:52.973Z,75.40
2017-12-15T18:46:20.448Z,75.40
2017-12-15T18:48:47.922Z,75.40
2017-12-15T18:51:15.407Z,75.50
2017-12-15T18:53:42.950Z,75.40
2017-12-15T18:56:10.381Z,75.30
2017-12-15T18:58:37.846Z,75.30
2017-12-15T19:01:05.325Z,75.30
2017-12-15T19:03:32.809Z,75.20
2017-12-15T19:06:01.047Z,75.20
2017-12-15T19:08:28.510Z,75.20
2017-12-15T19:10:55.996Z,75.20
2017-12-15T19:13:23.474Z,75.10
2017-12-15T19:15:57.642Z,75.00
2017-12-15T19:18:25.114Z,75.00
2017-12-15T19:20:52.598Z,75.00
2017-12-15T19:23:20.086Z,75.00
2017-12-15T19:25:47.588Z,75.00
2017-12-15T19:28:15.065Z,75.00
2017-12-15T19:30:42.539Z,75.00
2017-12-15T19:33:10.006Z,74.90
2017-12-15T19:35:37.481Z,74.90
2017-12-15T19:38:04.958Z,74.80
2017-12-15T19:40:33.192Z,74.80
2017-12-15T19:43:00.664Z,74.70
2017-12-15T19:45:28.191Z,74.70
2017-12-15T19:47:55.657Z,74.70
2017-12-15T19:50:23.179Z,74.60
2017-12-15T19:52:50.657Z,74.60
2017-12-15T19:55:18.965Z,74.50
2017-12-15T19:57:46.470Z,74.30
2017-12-15T20:00:13.964Z,74.40
2017-12-15T20:02:42.204Z,74.40
2017-12-15T20:05:09.684Z,74.40
2017-12-15T20:07:37.153Z,74.40
2017-12-15T20:10:05.444Z,74.80
2017-12-15T20:12:32.966Z,74.30
2017-12-15T20:15:00.490Z,74.30
2017-12-15T20:17:27.985Z,74.40
2017-12-15T20:19:55.452Z,74.40
2017-12-15T20:22:22.996Z,74.10
2017-12-15T20:24:50.538Z,73.70
2017-12-15T20:27:18.779Z,73.80
2017-12-15T20:29:46.264Z,73.70
2017-12-15T20:32:13.796Z,73.70
2017-12-15T20:34:41.251Z,73.70
2017-12-15T20:37:08.713Z,73.70
2017-12-15T20:39:36.187Z,73.80
2017-12-15T20:42:03.698Z,73.80
2017-12-15T20:44:31.146Z,73.90
2017-12-15T20:46:59.382Z,73.90
2017-12-15T20:49:26.872Z,73.90
2017-12-15T20:51:54.408Z,73.90
2017-12-15T20:54:21.951Z,73.90
2017-12-15T20:56:49.409Z,74.00
2017-12-15T20:59:16.941Z,74.00
2017-12-15T21:01:44.448Z,74.10
2017-12-15T21:04:11.970Z,74.10
2017-12-15T21:06:40.196Z,74.80
2017-12-15T21:09:07.736Z,74.10
2017-12-15T21:11:35.257Z,74.10
2017-12-15T21:14:02.741Z,74.20
2017-12-15T21:16:30.981Z,74.20
2017-12-15T21:18:59.249Z,74.10
2017-12-15T21:21:26.757Z,74.10
2017-12-15T21:23:54.266Z,74.20
2017-12-15T21:26:21.723Z,74.30
2017-12-15T21:28:49.232Z,74.40
2017-12-15T21:31:16.689Z,74.50
2017-12-15T21:33:44.173Z,74.60
2017-12-15T21:36:12.477Z,74.80
2017-12-15T21:38:40.705Z,74.90
2017-12-15T21:41:08.283Z,74.90
2017-12-15T21:43:35.763Z,74.80
2017-12-15T21:46:03.238Z,74.70
2017-12-15T21:48:31.505Z,74.80
2017-12-15T21:50:59.040Z,74.70
2017-12-15T21:53:26.537Z,74.80
2017-12-15T21:55:54.017Z,74.70
2017-12-15T21:58:22.296Z,74.70
2017-12-15T22:00:50.542Z,74.70
2017-12-15T22:03:18.016Z,74.70
2017-12-15T22:05:45.526Z,74.70
2017-12-15T22:08:12.958Z,74.70
2017-12-15T22:10:41.251Z,74.60
2017-12-15T22:13:08.729Z,74.60
2017-12-15T22:15:36.212Z,74.60
2017-12-15T22:18:03.686Z,74.50
2017-12-15T22:20:31.193Z,74.50
2017-12-15T22:22:59.460Z,74.50
2017-12-15T22:25:26.991Z,74.50
2017-12-15T22:27:54.509Z,74.50
2017-12-15T22:30:22.024Z,74.50
2017-12-15T22:32:49.490Z,74.70
2017-12-15T22:35:16.961Z,74.70
2017-12-15T22:37:44.487Z,74.70
2017-12-15T22:40:11.964Z,74.70
2017-12-15T22:42:39.440Z,74.70
2017-12-15T22:45:06.912Z,74.60
2017-12-15T22:47:34.376Z,74.50
2017-12-15T22:50:01.864Z,74.50
2017-12-15T22:52:30.102Z,74.30
2017-12-15T22:54:57.616Z,74.40
2017-12-15T22:57:25.894Z,74.20
2017-12-15T22:59:53.418Z,74.30
2017-12-15T23:02:20.888Z,74.30
2017-12-15T23:04:48.372Z,74.30
2017-12-15T23:07:15.879Z,74.30
2017-12-15T23:09:44.142Z,74.40
2017-12-15T23:12:12.377Z,74.50
2017-12-15T23:14:39.909Z,74.50
2017-12-15T23:17:07.434Z,74.90
2017-12-15T23:19:34.890Z,74.60
2017-12-15T23:22:02.377Z,74.90
2017-12-15T23:24:30.610Z,75.50
2017-12-15T23:26:58.131Z,75.50
2017-12-15T23:29:26.388Z,75.40
2017-12-15T23:31:53.832Z,75.40
2017-12-15T23:34:21.346Z,75.40
2017-12-15T23:36:48.810Z,75.40
2017-12-15T23:39:16.277Z,75.40
2017-12-15T23:41:43.807Z,75.50
2017-12-15T23:44:11.282Z,75.40
2017-12-15T23:46:39.527Z,75.40
2017-12-15T23:49:07.033Z,75.40
2017-12-15T23:51:35.319Z,75.40
2017-12-15T23:54:02.789Z,75.40
2017-12-15T23:56:42.155Z,75.40
2017-12-15T23:59:09.618Z,75.40
